Time;durP1;ratioP1;P1;durP2;ratioP2;P2;SDS_P1;SDS_P2;PMS_P1;PMS_P2;Temp;Humidity;BMP_temperature;BMP_pressure;BME280_temperature;BME280_humidity;BME280_pressure;Samples;Min_cycle;Max_cycle;Signal;HPM_P1;HPM_P2
2022/01/27 00:01:47;;;;;;;37.55;18.23;;;-0.10;99.90;;;;;;5071685;28;20199;-76
2022/01/27 00:04:17;;;;;;;35.20;19.67;;;-0.10;99.90;;;;;;5072080;28;20291;-76
2022/01/27 00:06:44;;;;;;;31.48;19.08;;;-0.10;99.90;;;;;;5075692;28;20211;-77
2022/01/27 00:09:14;;;;;;;28.58;17.25;;;-0.10;99.90;;;;;;5071466;28;20231;-77
2022/01/27 00:11:44;;;;;;;33.33;17.40;;;-0.10;99.90;;;;;;5071681;28;20235;-77
2022/01/27 00:14:13;;;;;;;29.23;16.63;;;-0.10;99.90;;;;;;5071000;28;20208;-77
2022/01/27 00:16:43;;;;;;;33.65;16.63;;;-0.10;99.90;;;;;;5071993;28;20557;-77
2022/01/27 00:19:11;;;;;;;34.25;17.17;;;-0.10;99.90;;;;;;5071809;28;20279;-77
2022/01/27 00:21:39;;;;;;;30.13;16.88;;;-0.10;99.90;;;;;;5072040;28;20294;-77
2022/01/27 00:24:06;;;;;;;32.10;16.70;;;-0.20;99.90;;;;;;5070626;28;20200;-77
2022/01/27 00:26:33;;;;;;;42.22;17.35;;;-0.20;99.90;;;;;;5071864;28;20207;-77
2022/01/27 00:29:02;;;;;;;27.13;16.73;;;-0.30;99.90;;;;;;5092267;22;20224;-94
2022/01/27 00:31:33;;;;;;;34.58;17.58;;;-0.30;99.90;;;;;;5069932;28;20686;-92
2022/01/27 00:34:07;;;;;;;29.55;17.10;;;-0.30;99.90;;;;;;5058677;28;20209;-92
2022/01/27 00:39:11;;;;;;;29.17;16.23;;;-0.30;99.90;;;;;;5022675;28;20256;-74
2022/01/27 00:41:38;;;;;;;33.00;16.50;;;-0.30;99.90;;;;;;5032818;28;20572;-76
2022/01/27 00:44:05;;;;;;;36.47;17.90;;;-0.30;99.90;;;;;;5031591;28;20198;-75
2022/01/27 00:46:36;;;;;;;33.17;17.60;;;-0.20;99.90;;;;;;5031895;28;20209;-76
2022/01/27 00:49:03;;;;;;;32.22;18.20;;;-0.20;99.90;;;;;;5032235;28;20222;-76
2022/01/27 00:51:35;;;;;;;29.13;17.23;;;-0.20;99.90;;;;;;5032330;28;20206;-76
2022/01/27 00:54:06;;;;;;;31.58;18.27;;;-0.30;99.90;;;;;;5031811;28;20202;-76
2022/01/27 00:56:41;;;;;;;32.42;16.85;;;-0.30;99.90;;;;;;5032531;28;20723;-76
2022/01/27 00:59:23;;;;;;;34.05;19.17;;;-0.30;99.90;;;;;;5034489;28;20208;-75
2022/01/27 01:02:00;;;;;;;33.28;17.88;;;-0.30;99.90;;;;;;5033910;28;20201;-75
2022/01/27 01:04:31;;;;;;;33.35;16.35;;;-0.20;99.90;;;;;;5032228;28;20267;-76
2022/01/27 01:06:58;;;;;;;31.52;16.55;;;-0.20;99.90;;;;;;5033076;28;20197;-76
2022/01/27 01:14:56;;;;;;;30.33;16.02;;;-0.40;99.90;;;;;;5032905;28;20282;-76
2022/01/27 01:20:47;;;;;;;30.02;16.75;;;-0.30;99.90;;;;;;5008588;28;20240;-76
2022/01/27 01:31:45;;;;;;;31.42;17.85;;;-0.30;99.90;;;;;;5032171;28;20308;-77
2022/01/27 01:34:18;;;;;;;28.38;18.17;;;-0.40;99.90;;;;;;5030922;28;20582;-77
2022/01/27 01:36:54;;;;;;;33.10;17.40;;;-0.40;99.90;;;;;;5032602;28;20206;-77
2022/01/27 01:39:22;;;;;;;31.98;17.88;;;-0.40;99.90;;;;;;5031324;28;20194;-77
2022/01/27 01:41:49;;;;;;;32.35;18.05;;;-0.40;99.90;;;;;;5031301;28;20258;-76
2022/01/27 01:44:16;;;;;;;32.28;18.55;;;-0.40;99.90;;;;;;5030980;28;20693;-76
2022/01/27 01:46:42;;;;;;;34.33;18.90;;;-0.30;99.90;;;;;;5030830;28;20619;-77
2022/01/27 01:49:09;;;;;;;30.15;17.30;;;-0.40;99.90;;;;;;5031390;28;20225;-76
2022/01/27 01:51:39;;;;;;;29.38;18.15;;;-0.40;99.90;;;;;;5030938;28;20221;-76
2022/01/27 01:54:08;;;;;;;31.38;18.58;;;-0.40;99.90;;;;;;5030745;28;20214;-76
2022/01/27 01:56:36;;;;;;;31.38;18.15;;;-0.40;99.90;;;;;;5031085;28;20209;-76
2022/01/27 01:59:03;;;;;;;30.95;17.85;;;-0.40;99.90;;;;;;5031562;28;20550;-76
2022/01/27 02:01:30;;;;;;;30.50;17.98;;;-0.40;99.90;;;;;;5037540;28;20198;-74
2022/01/27 02:03:59;;;;;;;32.70;18.40;;;-0.40;99.90;;;;;;5037359;28;20205;-77
2022/01/27 02:06:32;;;;;;;27.27;16.77;;;-0.40;99.90;;;;;;5039026;28;20225;-76
2022/01/27 02:09:12;;;;;;;30.50;17.00;;;-0.40;99.90;;;;;;5036638;28;20217;-76
2022/01/27 02:19:56;;;;;;;30.35;17.15;;;-0.70;99.90;;;;;;5030642;28;20672;-76
2022/01/27 02:22:23;;;;;;;28.90;17.65;;;-0.80;99.90;;;;;;5029987;28;20214;-77
2022/01/27 02:24:51;;;;;;;30.00;17.27;;;-0.90;99.90;;;;;;5030594;28;20249;-77
2022/01/27 02:27:19;;;;;;;35.92;17.00;;;-0.90;99.90;;;;;;5030327;28;20256;-77
2022/01/27 02:29:47;;;;;;;29.90;17.08;;;-0.90;99.90;;;;;;5034243;28;20770;-76
2022/01/27 02:32:16;;;;;;;27.15;17.83;;;-0.90;99.90;;;;;;5033482;28;20205;-77
2022/01/27 02:34:44;;;;;;;33.50;17.52;;;-0.90;99.90;;;;;;5034054;28;20222;-77
2022/01/27 02:37:12;;;;;;;30.63;18.15;;;-0.80;99.90;;;;;;5034107;28;20209;-76
2022/01/27 02:39:40;;;;;;;29.05;17.65;;;-0.80;99.90;;;;;;5034166;28;20198;-76
2022/01/27 02:42:12;;;;;;;24.88;15.68;;;-0.70;99.90;;;;;;5034207;28;20202;-77
2022/01/27 02:44:52;;;;;;;32.38;17.70;;;-0.70;99.90;;;;;;5033697;28;20230;-77
2022/01/27 02:47:19;;;;;;;33.33;18.05;;;-0.80;99.90;;;;;;5034040;28;20198;-77
2022/01/27 02:49:46;;;;;;;33.45;17.65;;;-0.90;99.90;;;;;;5033662;28;20225;-76
2022/01/27 02:52:14;;;;;;;27.38;16.35;;;-1.00;99.90;;;;;;5033593;28;20202;-76
2022/01/27 02:54:41;;;;;;;29.13;17.15;;;-1.00;99.90;;;;;;5033445;28;20346;-76
2022/01/27 02:57:09;;;;;;;27.95;15.95;;;-0.90;99.90;;;;;;5034072;28;20297;-77
2022/01/27 02:59:35;;;;;;;27.95;14.88;;;-0.90;99.90;;;;;;5033812;28;20197;-77
2022/01/27 03:02:03;;;;;;;29.60;17.05;;;-0.90;99.90;;;;;;5033489;28;20585;-77
2022/01/27 03:04:30;;;;;;;26.88;16.67;;;-0.90;99.90;;;;;;5033320;28;20224;-77
2022/01/27 03:06:58;;;;;;;28.42;18.98;;;-0.90;99.90;;;;;;5033474;28;20255;-76
2022/01/27 03:09:26;;;;;;;30.65;17.60;;;-0.80;99.90;;;;;;5033675;28;20226;-76
2022/01/27 03:11:58;;;;;;;29.02;17.70;;;-0.80;99.90;;;;;;5033328;28;20198;-77
2022/01/27 03:14:26;;;;;;;29.42;18.27;;;-0.80;99.90;;;;;;5033164;28;20209;-77
2022/01/27 03:16:56;;;;;;;28.83;16.83;;;-0.70;99.90;;;;;;5033610;28;20228;-76
2022/01/27 03:19:22;;;;;;;29.35;16.35;;;-0.70;99.90;;;;;;5033149;28;20201;-77
2022/01/27 03:21:50;;;;;;;31.50;17.27;;;-0.80;99.90;;;;;;5033370;28;20213;-76
2022/01/27 03:24:17;;;;;;;28.13;16.88;;;-0.80;99.90;;;;;;5032711;28;20210;-76
2022/01/27 03:26:46;;;;;;;31.58;16.90;;;-0.80;99.90;;;;;;5034304;28;20209;-76
2022/01/27 03:29:13;;;;;;;26.23;16.13;;;-0.70;99.90;;;;;;5033201;28;20228;-76
2022/01/27 03:31:39;;;;;;;30.25;18.13;;;-0.80;99.90;;;;;;5032818;28;20208;-76
2022/01/27 03:34:06;;;;;;;28.45;16.38;;;-0.70;99.90;;;;;;5032912;28;20206;-77
2022/01/27 03:36:33;;;;;;;28.90;17.90;;;-0.70;99.90;;;;;;5032666;28;20212;-75
2022/01/27 03:38:59;;;;;;;26.92;17.48;;;-0.70;99.90;;;;;;5032605;28;20217;-77
2022/01/27 03:41:31;;;;;;;30.75;18.25;;;-0.90;99.90;;;;;;5032733;28;20206;-76
2022/01/27 03:43:59;;;;;;;28.88;16.48;;;-1.10;99.90;;;;;;5032581;28;20736;-76
2022/01/27 03:46:26;;;;;;;33.17;19.25;;;-1.20;99.90;;;;;;5032728;28;20233;-77
2022/01/27 03:48:53;;;;;;;30.85;17.55;;;-1.10;99.90;;;;;;5033161;28;20686;-76
2022/01/27 03:51:20;;;;;;;36.88;18.85;;;-1.20;99.90;;;;;;5033053;28;20614;-76
2022/01/27 03:53:47;;;;;;;30.25;18.27;;;-1.30;99.90;;;;;;5032500;28;20209;-76
2022/01/27 03:56:13;;;;;;;34.17;17.55;;;-1.30;99.90;;;;;;5033137;28;20218;-76
2022/01/27 03:58:40;;;;;;;35.95;18.95;;;-1.40;99.90;;;;;;5032465;28;20562;-76
2022/01/27 04:01:08;;;;;;;30.00;18.30;;;-1.30;99.90;;;;;;5033053;28;20210;-76
2022/01/27 04:03:38;;;;;;;34.78;18.70;;;-1.20;99.90;;;;;;5032242;28;20197;-76
2022/01/27 04:06:07;;;;;;;33.47;18.45;;;-1.10;99.90;;;;;;5032929;28;20766;-74
2022/01/27 04:08:36;;;;;;;32.78;17.83;;;-1.00;99.90;;;;;;5032793;28;20272;-75
2022/01/27 04:11:03;;;;;;;33.80;18.65;;;-1.00;99.90;;;;;;5032595;28;20234;-76
2022/01/27 04:13:30;;;;;;;36.35;19.20;;;-1.00;99.90;;;;;;5031965;28;20209;-76
2022/01/27 04:15:57;;;;;;;30.17;17.35;;;-1.00;99.90;;;;;;5032467;28;20252;-76
2022/01/27 04:18:25;;;;;;;34.83;18.77;;;-1.00;99.90;;;;;;5032131;28;20205;-76
2022/01/27 04:20:51;;;;;;;31.60;19.52;;;-1.00;99.90;;;;;;5032587;28;20572;-76
2022/01/27 04:23:19;;;;;;;31.95;19.42;;;-1.00;99.90;;;;;;5031224;28;20205;-76
2022/01/27 04:25:45;;;;;;;27.55;17.63;;;-1.10;99.90;;;;;;5031841;28;20221;-76
2022/01/27 04:28:16;;;;;;;34.42;17.85;;;-1.10;99.90;;;;;;5030594;28;20217;-76
2022/01/27 04:30:43;;;;;;;27.40;16.67;;;-1.10;99.90;;;;;;5030055;28;20233;-76
2022/01/27 04:33:10;;;;;;;29.45;18.02;;;-1.20;99.90;;;;;;5030887;28;20688;-76
2022/01/27 04:35:43;;;;;;;25.08;16.33;;;-1.10;99.90;;;;;;5026357;28;20697;-76
2022/01/27 04:38:23;;;;;;;29.40;16.27;;;-1.10;99.90;;;;;;5030512;28;20619;-76
2022/01/27 04:40:58;;;;;;;29.63;17.63;;;-1.10;99.90;;;;;;5014625;28;20584;-76
2022/01/27 04:43:32;;;;;;;32.20;17.80;;;-1.10;99.90;;;;;;5019039;28;20229;-76
2022/01/27 04:46:08;;;;;;;33.65;18.73;;;-1.10;99.90;;;;;;5022134;28;20305;-77
2022/01/27 04:48:38;;;;;;;28.42;17.25;;;-1.10;99.90;;;;;;5023529;28;20213;-78
2022/01/27 04:51:10;;;;;;;29.55;17.35;;;-1.10;99.90;;;;;;5030960;28;20201;-76
2022/01/27 04:53:42;;;;;;;25.20;15.07;;;-1.10;99.90;;;;;;5025783;28;20209;-76
2022/01/27 04:56:13;;;;;;;27.13;17.15;;;-1.10;99.90;;;;;;5014038;28;20249;-77
2022/01/27 04:58:40;;;;;;;32.42;17.50;;;-1.10;99.90;;;;;;5023779;28;20205;-77
2022/01/27 05:01:07;;;;;;;28.13;16.88;;;-1.10;99.90;;;;;;5011351;28;21327;-77
2022/01/27 05:03:40;;;;;;;33.63;17.20;;;-1.00;99.90;;;;;;5010123;28;20211;-77
2022/01/27 05:06:08;;;;;;;29.65;16.75;;;-1.00;99.90;;;;;;5014215;28;20225;-77
2022/01/27 05:08:35;;;;;;;33.38;19.33;;;-1.10;99.90;;;;;;5030351;28;20284;-77
2022/01/27 05:11:07;;;;;;;32.70;16.60;;;-1.10;99.90;;;;;;5030693;28;20649;-77
2022/01/27 05:13:40;;;;;;;32.35;18.17;;;-1.20;99.90;;;;;;5030103;28;20205;-77
2022/01/27 05:16:07;;;;;;;28.10;15.75;;;-1.30;99.90;;;;;;5014368;28;20225;-77
2022/01/27 05:18:34;;;;;;;27.52;16.70;;;-1.20;99.90;;;;;;5020015;28;20201;-77
2022/01/27 05:21:01;;;;;;;30.92;16.77;;;-1.30;99.90;;;;;;5030775;28;20594;-77
2022/01/27 05:23:29;;;;;;;27.67;18.17;;;-1.30;99.90;;;;;;5030667;28;20202;-77
2022/01/27 05:25:56;;;;;;;31.13;17.73;;;-1.30;99.90;;;;;;5017477;28;20222;-78
2022/01/27 05:28:23;;;;;;;28.17;16.85;;;-1.20;99.90;;;;;;5013906;28;20209;-77
2022/01/27 05:30:50;;;;;;;33.90;17.83;;;-1.30;99.90;;;;;;5028740;28;20217;-78
2022/01/27 05:33:17;;;;;;;27.77;16.92;;;-1.30;99.90;;;;;;5031716;28;20205;-76
2022/01/27 05:35:45;;;;;;;29.00;17.58;;;-1.40;99.90;;;;;;5030697;28;20229;-76
2022/01/27 05:38:14;;;;;;;33.10;18.02;;;-1.40;99.90;;;;;;5032653;28;20653;-77
2022/01/27 05:40:42;;;;;;;35.60;17.20;;;-1.50;99.90;;;;;;5034667;28;20228;-77
2022/01/27 05:43:10;;;;;;;29.17;15.85;;;-1.50;99.90;;;;;;5033493;28;20575;-78
2022/01/27 05:45:37;;;;;;;33.88;17.45;;;-1.60;99.90;;;;;;5034101;28;20229;-75
2022/01/27 05:48:04;;;;;;;31.67;17.58;;;-1.60;99.90;;;;;;5034724;28;20213;-80
2022/01/27 05:50:31;;;;;;;27.73;17.15;;;-1.70;99.90;;;;;;5050126;28;20233;-77
2022/01/27 05:52:58;;;;;;;32.70;19.23;;;-1.80;99.90;;;;;;5050182;28;20220;-76
2022/01/27 05:55:25;;;;;;;32.85;18.13;;;-1.80;99.90;;;;;;5048153;28;20240;-77
2022/01/27 05:57:53;;;;;;;32.88;17.33;;;-1.80;99.90;;;;;;5045404;28;20205;-77
2022/01/27 06:00:20;;;;;;;34.72;17.58;;;-1.70;99.90;;;;;;5050273;28;20206;-77
2022/01/27 06:02:47;;;;;;;29.77;17.98;;;-1.80;99.90;;;;;;5050921;28;20186;-76
2022/01/27 06:05:14;;;;;;;33.97;18.45;;;-1.60;99.90;;;;;;5053552;28;20216;-77
2022/01/27 06:07:41;;;;;;;36.00;17.42;;;-1.50;99.90;;;;;;5044977;28;20208;-79
2022/01/27 06:10:08;;;;;;;35.42;18.90;;;-1.40;99.90;;;;;;5037714;28;20229;-78
2022/01/27 06:12:44;;;;;;;31.50;16.88;;;-1.40;99.90;;;;;;5036727;28;20212;-79
2022/01/27 06:15:12;;;;;;;31.75;16.20;;;-1.30;99.90;;;;;;5035924;28;20225;-78
2022/01/27 06:17:39;;;;;;;27.98;15.48;;;-1.30;99.90;;;;;;5035061;28;20202;-77
2022/01/27 06:20:07;;;;;;;29.83;16.90;;;-1.30;99.90;;;;;;5034612;28;20201;-80
2022/01/27 06:22:34;;;;;;;26.50;15.70;;;-1.30;99.90;;;;;;5034096;28;20208;-79
2022/01/27 06:25:00;;;;;;;29.75;16.98;;;-1.30;99.90;;;;;;5034656;28;20226;-79
2022/01/27 06:27:27;;;;;;;24.27;13.85;;;-1.20;99.90;;;;;;5034115;28;20210;-79
2022/01/27 06:32:23;;;;;;;31.90;18.02;;;-1.20;99.90;;;;;;5048328;28;20291;-73
2022/01/27 06:34:51;;;;;;;29.35;15.85;;;-1.20;99.90;;;;;;5050172;28;20217;-73
2022/01/27 06:37:18;;;;;;;32.70;16.70;;;-1.20;99.90;;;;;;5049944;28;20197;-73
2022/01/27 06:39:45;;;;;;;28.52;15.90;;;-1.10;99.90;;;;;;5050085;28;20201;-74
2022/01/27 06:42:12;;;;;;;27.70;15.05;;;-1.10;99.90;;;;;;5049511;28;20227;-72
2022/01/27 06:44:38;;;;;;;27.77;16.63;;;-1.10;99.90;;;;;;5050241;28;20225;-73
2022/01/27 06:47:05;;;;;;;31.27;18.00;;;-1.20;99.90;;;;;;5050246;28;20205;-73
2022/01/27 06:49:33;;;;;;;30.17;17.45;;;-1.10;99.90;;;;;;5050164;28;20221;-73
2022/01/27 06:52:00;;;;;;;31.23;16.65;;;-1.20;99.90;;;;;;5049821;28;20573;-72
2022/01/27 06:54:27;;;;;;;28.33;15.57;;;-1.10;99.90;;;;;;5049740;28;20232;-74
2022/01/27 06:56:54;;;;;;;28.48;17.60;;;-1.10;99.90;;;;;;5049854;28;20205;-73
2022/01/27 06:59:21;;;;;;;34.33;16.30;;;-1.10;99.90;;;;;;5050207;28;20296;-73
2022/01/27 07:01:48;;;;;;;26.33;16.23;;;-1.10;99.90;;;;;;5049981;28;20208;-72
2022/01/27 07:04:15;;;;;;;29.15;17.17;;;-1.10;99.90;;;;;;5049230;28;20197;-73
2022/01/27 07:06:43;;;;;;;30.10;17.90;;;-1.10;99.90;;;;;;5050135;28;20573;-73
2022/01/27 07:09:09;;;;;;;25.17;15.70;;;-1.10;99.90;;;;;;5049608;28;20220;-73
2022/01/27 07:11:36;;;;;;;25.45;15.50;;;-1.10;99.90;;;;;;5050121;28;20201;-73
2022/01/27 07:14:03;;;;;;;31.35;17.50;;;-1.10;99.90;;;;;;5050348;28;20205;-73
2022/01/27 07:16:29;;;;;;;29.13;16.65;;;-1.10;99.90;;;;;;5053650;28;20225;-73
2022/01/27 07:18:56;;;;;;;27.75;18.25;;;-1.20;99.90;;;;;;5053468;28;20201;-73
2022/01/27 07:21:23;;;;;;;28.45;17.00;;;-1.20;99.90;;;;;;5053305;28;20204;-73
2022/01/27 07:23:51;;;;;;;34.42;16.90;;;-1.20;99.90;;;;;;5052933;28;20295;-73
2022/01/27 07:26:24;;;;;;;28.75;14.63;;;-1.20;99.90;;;;;;5052880;28;20233;-73
2022/01/27 07:28:51;;;;;;;27.17;15.40;;;-1.20;99.90;;;;;;5053363;28;20201;-73
2022/01/27 07:31:18;;;;;;;26.50;15.13;;;-1.20;99.90;;;;;;5052375;28;20256;-73
2022/01/27 07:33:44;;;;;;;29.27;15.40;;;-1.20;99.90;;;;;;5052947;28;20212;-73
2022/01/27 07:36:11;;;;;;;26.65;14.15;;;-1.30;99.90;;;;;;5053200;28;20225;-73
2022/01/27 07:38:38;;;;;;;27.63;14.30;;;-1.20;99.90;;;;;;5052421;28;20205;-73
2022/01/27 07:41:07;;;;;;;27.20;15.90;;;-1.20;99.90;;;;;;5051033;28;20197;-73
2022/01/27 07:43:34;;;;;;;24.02;13.68;;;-1.20;99.90;;;;;;5052160;28;20300;-73
2022/01/27 07:46:03;;;;;;;29.73;15.77;;;-1.10;99.90;;;;;;5052611;28;20662;-73
2022/01/27 07:48:30;;;;;;;22.90;14.50;;;-1.10;99.90;;;;;;5052623;28;20213;-73
2022/01/27 07:50:57;;;;;;;23.88;13.80;;;-1.10;99.90;;;;;;5051585;28;20251;-73
2022/01/27 07:53:25;;;;;;;26.83;13.95;;;-1.10;99.90;;;;;;5052207;28;20633;-73
2022/01/27 07:55:52;;;;;;;22.17;13.25;;;-1.00;99.90;;;;;;5052146;28;20575;-72
2022/01/27 07:58:21;;;;;;;28.80;14.50;;;-1.00;99.90;;;;;;5053078;28;20259;-73
2022/01/27 08:00:48;;;;;;;24.20;14.00;;;-1.00;99.90;;;;;;5052274;28;20197;-73
2022/01/27 08:03:15;;;;;;;22.10;11.82;;;-1.10;99.90;;;;;;5051722;28;20209;-73
2022/01/27 08:05:43;;;;;;;25.55;12.25;;;-1.10;99.90;;;;;;5052546;28;20228;-73
2022/01/27 08:08:10;;;;;;;24.83;14.15;;;-1.10;99.90;;;;;;5051693;28;20197;-73
2022/01/27 08:10:38;;;;;;;22.25;12.23;;;-1.10;99.90;;;;;;5050763;28;20350;-73
2022/01/27 08:13:05;;;;;;;22.77;13.02;;;-1.10;99.90;;;;;;5049484;28;20296;-75
2022/01/27 08:15:33;;;;;;;19.10;11.32;;;-1.10;99.90;;;;;;5051831;28;20586;-74
2022/01/27 08:18:00;;;;;;;21.23;11.98;;;-1.00;99.90;;;;;;5051365;28;20197;-73
2022/01/27 08:20:28;;;;;;;20.77;12.15;;;-1.00;99.90;;;;;;5051889;28;20196;-73
2022/01/27 08:22:58;;;;;;;21.30;12.77;;;-0.90;99.90;;;;;;5051276;28;20216;-72
2022/01/27 08:25:26;;;;;;;25.60;13.02;;;-0.90;99.90;;;;;;5051396;28;20227;-72
2022/01/27 08:27:55;;;;;;;24.42;13.70;;;-0.80;99.90;;;;;;5051837;28;20595;-72
2022/01/27 08:30:26;;;;;;;25.40;14.73;;;-0.80;99.90;;;;;;5051425;28;20231;-73
2022/01/27 08:32:59;;;;;;;29.58;14.05;;;-0.80;99.90;;;;;;5050804;28;20197;-73
2022/01/27 08:35:26;;;;;;;21.73;12.70;;;-0.80;99.90;;;;;;5050780;28;20221;-73
2022/01/27 08:37:53;;;;;;;25.20;13.40;;;-0.70;99.90;;;;;;5051180;28;20213;-73
2022/01/27 08:40:21;;;;;;;29.52;14.43;;;-0.70;99.90;;;;;;5051318;28;20201;-73
2022/01/27 08:42:48;;;;;;;27.63;15.07;;;-0.70;99.90;;;;;;5050864;28;20212;-72
2022/01/27 08:45:17;;;;;;;26.52;12.95;;;-0.70;99.90;;;;;;5050976;28;20217;-73
2022/01/27 08:47:44;;;;;;;27.00;14.52;;;-0.60;99.90;;;;;;5050790;28;20296;-72
2022/01/27 08:50:14;;;;;;;29.15;14.85;;;-0.60;99.90;;;;;;5050616;28;20274;-73
2022/01/27 08:52:42;;;;;;;25.17;13.10;;;-0.60;99.90;;;;;;5050572;28;20236;-73
2022/01/27 08:55:10;;;;;;;26.27;14.70;;;-0.60;99.90;;;;;;5050024;28;20225;-74
2022/01/27 08:57:38;;;;;;;22.35;12.05;;;-0.60;99.90;;;;;;5050846;28;20914;-73
2022/01/27 09:00:07;;;;;;;28.88;13.73;;;-0.60;99.90;;;;;;5050377;28;20559;-73
2022/01/27 09:02:34;;;;;;;28.77;14.73;;;-0.60;99.90;;;;;;5050450;28;20718;-73
2022/01/27 09:05:01;;;;;;;24.25;12.48;;;-0.60;99.90;;;;;;5050318;28;20225;-74
2022/01/27 09:07:29;;;;;;;29.75;13.30;;;-0.60;99.90;;;;;;5050429;28;20381;-74
2022/01/27 09:09:56;;;;;;;29.58;14.70;;;-0.60;99.90;;;;;;5050617;28;20220;-74
2022/01/27 09:12:22;;;;;;;26.58;15.43;;;-0.60;99.90;;;;;;5049700;28;20299;-74
2022/01/27 09:14:49;;;;;;;22.63;13.10;;;-0.60;99.90;;;;;;5050733;28;20591;-73
2022/01/27 09:17:17;;;;;;;27.45;13.95;;;-0.60;99.90;;;;;;5050033;28;20205;-74
2022/01/27 09:19:46;;;;;;;23.35;13.75;;;-0.40;99.90;;;;;;5050704;28;20241;-73
2022/01/27 09:22:16;;;;;;;28.98;14.00;;;0.00;99.90;;;;;;5049228;28;20251;-73
2022/01/27 09:24:53;;;;;;;23.38;13.82;;;0.40;99.90;;;;;;5048900;28;20221;-73
2022/01/27 09:27:20;;;;;;;23.17;13.02;;;1.40;99.90;;;;;;5047793;28;20744;-73
2022/01/27 09:29:47;;;;;;;19.60;11.75;;;3.70;99.90;;;;;;5048971;28;20205;-74
2022/01/27 09:32:15;;;;;;;20.95;12.10;;;5.90;99.90;;;;;;5049336;28;20216;-73
2022/01/27 09:34:42;;;;;;;25.23;12.65;;;7.90;99.90;;;;;;5050345;28;20282;-74
2022/01/27 09:37:09;;;;;;;20.77;11.38;;;8.90;99.20;;;;;;5048839;28;20209;-75
2022/01/27 09:39:36;;;;;;;19.25;12.20;;;8.40;97.90;;;;;;5050174;28;20205;-74
2022/01/27 09:42:06;;;;;;;24.52;13.20;;;7.10;98.30;;;;;;5048562;28;20280;-74
2022/01/27 09:44:33;;;;;;;19.45;11.30;;;5.40;99.90;;;;;;5029514;28;20228;-74
2022/01/27 09:47:02;;;;;;;17.00;11.02;;;3.90;99.90;;;;;;5037883;28;20201;-74
2022/01/27 09:49:36;;;;;;;17.15;9.95;;;2.90;99.90;;;;;;5048672;28;20193;-73
2022/01/27 09:52:04;;;;;;;18.48;11.70;;;2.30;99.90;;;;;;5048237;28;20212;-74
2022/01/27 09:54:31;;;;;;;20.15;11.52;;;1.80;99.90;;;;;;5048360;28;20715;-75
2022/01/27 09:56:58;;;;;;;23.73;11.57;;;1.50;99.90;;;;;;5044829;28;20212;-74
2022/01/27 09:59:26;;;;;;;21.20;12.38;;;1.10;99.90;;;;;;5046397;28;20201;-74
2022/01/27 10:01:56;;;;;;;15.82;10.02;;;0.80;99.90;;;;;;5048572;28;20209;-74
2022/01/27 10:04:26;;;;;;;23.52;11.15;;;0.60;99.90;;;;;;5048296;28;20216;-73
2022/01/27 10:06:58;;;;;;;21.05;11.75;;;0.40;99.90;;;;;;5045870;28;20209;-74
2022/01/27 10:09:27;;;;;;;18.92;11.65;;;0.30;99.90;;;;;;5049164;28;20193;-74
2022/01/27 10:11:54;;;;;;;18.65;10.85;;;0.30;99.90;;;;;;5049551;28;20262;-74
2022/01/27 10:14:24;;;;;;;19.85;10.80;;;0.30;99.90;;;;;;5049496;28;20231;-73
2022/01/27 10:16:54;;;;;;;17.52;9.90;;;0.30;99.90;;;;;;5050082;28;20225;-74
2022/01/27 10:19:21;;;;;;;16.48;10.38;;;0.30;99.90;;;;;;5049486;28;20208;-74
2022/01/27 10:21:48;;;;;;;21.27;9.75;;;0.40;99.90;;;;;;5049445;28;20197;-74
2022/01/27 10:24:19;;;;;;;17.35;9.05;;;0.50;99.90;;;;;;5048794;28;20262;-74
2022/01/27 10:26:53;;;;;;;16.42;10.05;;;0.50;99.90;;;;;;5049561;28;20614;-74
2022/01/27 10:29:34;;;;;;;14.02;8.27;;;0.50;99.90;;;;;;5049019;28;20211;-74
2022/01/27 10:32:08;;;;;;;19.85;10.88;;;0.50;99.90;;;;;;5049180;28;20216;-73
2022/01/27 10:34:56;;;;;;;16.17;10.00;;;0.50;99.90;;;;;;5049570;28;20225;-75
2022/01/27 10:37:23;;;;;;;20.98;11.52;;;0.40;99.90;;;;;;5048969;28;20200;-73
2022/01/27 10:39:50;;;;;;;18.58;10.40;;;0.30;99.90;;;;;;5049777;28;20690;-74
2022/01/27 10:42:21;;;;;;;26.75;11.10;;;0.30;99.90;;;;;;5048374;28;20592;-74
2022/01/27 10:44:54;;;;;;;19.17;11.50;;;0.30;99.90;;;;;;5049288;28;20228;-74
2022/01/27 10:47:29;;;;;;;23.08;11.70;;;0.30;99.90;;;;;;5048868;28;20640;-74
2022/01/27 10:49:59;;;;;;;17.13;10.23;;;0.30;99.90;;;;;;5051966;28;20668;-74
2022/01/27 10:52:34;;;;;;;20.80;10.88;;;0.20;99.90;;;;;;5052648;28;20220;-74
2022/01/27 10:55:07;;;;;;;18.90;10.32;;;0.30;99.90;;;;;;5053043;28;20216;-74
2022/01/27 10:57:34;;;;;;;16.67;10.35;;;0.40;99.90;;;;;;5053037;28;20204;-74
2022/01/27 11:00:08;;;;;;;20.77;10.73;;;0.50;99.90;;;;;;5052400;28;20205;-74
2022/01/27 11:02:49;;;;;;;18.80;10.82;;;0.60;99.90;;;;;;5052869;28;20263;-74
2022/01/27 11:05:19;;;;;;;15.15;9.90;;;0.50;99.90;;;;;;5051976;28;20228;-73
2022/01/27 11:07:47;;;;;;;17.45;9.35;;;0.60;99.90;;;;;;5052850;28;20212;-73
2022/01/27 11:10:15;;;;;;;16.27;10.45;;;0.70;99.90;;;;;;5052705;28;20275;-73
2022/01/27 11:12:43;;;;;;;17.63;10.90;;;0.80;99.90;;;;;;5052450;28;20579;-73
2022/01/27 11:15:11;;;;;;;13.32;8.98;;;0.70;99.90;;;;;;5052112;28;20707;-74
2022/01/27 11:17:41;;;;;;;16.38;9.43;;;0.60;99.90;;;;;;5034839;28;20277;-73
2022/01/27 11:20:28;;;;;;;17.85;11.15;;;0.60;99.90;;;;;;5032197;28;20202;-73
2022/01/27 11:23:24;;;;;;;20.80;11.43;;;0.70;99.90;;;;;;5050781;28;20335;-73
2022/01/27 11:25:54;;;;;;;18.05;10.00;;;0.60;99.90;;;;;;5045064;28;20328;-74
2022/01/27 11:28:22;;;;;;;18.10;10.88;;;0.70;99.90;;;;;;5032581;28;20224;-73
2022/01/27 11:31:11;;;;;;;18.85;11.80;;;0.60;99.90;;;;;;5033267;28;20225;-74
2022/01/27 11:33:44;;;;;;;18.95;10.48;;;0.50;99.90;;;;;;5032521;28;20213;-73
2022/01/27 11:36:12;;;;;;;20.38;10.40;;;0.50;99.90;;;;;;5031681;28;20253;-74
2022/01/27 11:38:42;;;;;;;15.35;10.38;;;0.60;99.90;;;;;;5032685;28;20673;-73
2022/01/27 11:41:36;;;;;;;16.10;9.95;;;0.60;99.90;;;;;;5032030;28;20204;-73
2022/01/27 11:44:25;;;;;;;14.75;9.98;;;0.70;99.90;;;;;;5031702;28;20576;-74
2022/01/27 11:47:19;;;;;;;13.68;9.50;;;0.80;99.90;;;;;;5033176;28;20233;-74
2022/01/27 11:49:57;;;;;;;17.67;9.35;;;0.70;99.90;;;;;;5032373;28;20574;-74
2022/01/27 11:52:27;;;;;;;13.73;9.30;;;0.70;99.90;;;;;;5031176;28;20234;-74
2022/01/27 11:54:57;;;;;;;17.95;10.32;;;0.70;99.90;;;;;;5032188;28;20655;-74
2022/01/27 11:57:41;;;;;;;14.82;9.77;;;0.90;99.90;;;;;;5031778;28;20244;-70
2022/01/27 12:00:11;;;;;;;17.38;9.60;;;1.00;99.90;;;;;;5031009;28;20252;-74
2022/01/27 12:03:08;;;;;;;14.07;9.57;;;1.00;99.90;;;;;;5031582;28;20579;-74
2022/01/27 12:05:39;;;;;;;18.48;11.13;;;1.10;99.90;;;;;;5030081;28;20229;-74
2022/01/27 12:08:23;;;;;;;16.35;8.65;;;1.10;99.90;;;;;;5031881;28;20205;-74
2022/01/27 12:10:54;;;;;;;17.42;10.02;;;1.00;99.90;;;;;;5030530;28;20952;-74
2022/01/27 12:13:56;;;;;;;16.27;10.13;;;1.00;99.90;;;;;;5031112;28;20233;-74
2022/01/27 12:16:37;;;;;;;17.75;10.18;;;1.00;99.90;;;;;;5031383;28;20726;-74
2022/01/27 12:19:06;;;;;;;16.48;9.75;;;1.00;99.90;;;;;;5031499;28;20209;-74
2022/01/27 12:21:37;;;;;;;14.77;9.43;;;1.10;99.90;;;;;;5031327;28;20635;-74
2022/01/27 12:24:25;;;;;;;15.63;10.13;;;1.10;99.90;;;;;;5030688;28;20202;-74
2022/01/27 12:26:53;;;;;;;14.73;8.82;;;1.10;99.90;;;;;;5031817;28;20201;-73
2022/01/27 12:29:25;;;;;;;16.17;9.38;;;1.10;99.90;;;;;;5031693;28;20410;-73
2022/01/27 12:31:53;;;;;;;13.15;9.75;;;1.20;99.90;;;;;;5031554;28;20225;-73
2022/01/27 12:34:20;;;;;;;16.52;10.48;;;1.30;99.90;;;;;;5031151;28;20209;-73
2022/01/27 12:37:00;;;;;;;15.95;10.10;;;1.50;99.90;;;;;;5031305;28;20554;-73
2022/01/27 12:39:29;;;;;;;14.20;9.48;;;1.60;99.90;;;;;;5031488;28;20577;-73
2022/01/27 12:41:56;;;;;;;14.02;9.05;;;1.60;99.90;;;;;;5031283;28;20208;-73
2022/01/27 12:44:25;;;;;;;16.75;10.65;;;1.70;99.90;;;;;;5030833;28;20213;-73
2022/01/27 12:47:10;;;;;;;13.95;9.75;;;1.60;99.90;;;;;;5031378;28;20596;-73
2022/01/27 12:49:41;;;;;;;14.38;9.05;;;1.60;99.90;;;;;;5030842;28;20669;-72
2022/01/27 12:52:11;;;;;;;15.10;8.88;;;1.60;99.90;;;;;;5030849;28;20222;-72
2022/01/27 12:54:39;;;;;;;12.73;9.52;;;1.70;99.90;;;;;;5031233;28;20279;-74
2022/01/27 12:57:09;;;;;;;14.55;9.90;;;1.80;99.90;;;;;;5030904;28;20206;-73
2022/01/27 12:59:38;;;;;;;15.80;9.82;;;1.70;99.90;;;;;;5031121;28;20728;-73
2022/01/27 13:02:06;;;;;;;13.23;9.00;;;1.80;99.90;;;;;;5030651;28;20618;-73
2022/01/27 13:04:34;;;;;;;14.20;9.55;;;2.00;99.90;;;;;;5030783;28;20226;-73
2022/01/27 13:07:01;;;;;;;18.88;8.88;;;2.10;99.90;;;;;;5030844;28;20202;-73
2022/01/27 13:09:31;;;;;;;12.65;10.05;;;2.20;99.90;;;;;;5031077;28;20201;-72
2022/01/27 13:12:00;;;;;;;15.38;10.10;;;2.20;99.90;;;;;;5029871;28;20268;-72
2022/01/27 13:14:28;;;;;;;14.57;9.57;;;2.10;99.90;;;;;;5030397;28;20208;-72